sensor_id;sensor_type;location;lat;lon;timestamp;P1;durP1;ratioP1;P2;durP2;ratioP2
36833;SDS011;48003;52.084;5.224;2023-04-09T00:00:40;41.0;;;27.2;;
36833;SDS011;48003;52.084;5.224;2023-04-09T00:02:17;40.9;;;27.7;;
36833;SDS011;48003;52.084;5.224;2023-04-09T00:03:54;40.71;;;28.4;;
36833;SDS011;48003;52.084;5.224;2023-04-09T00:05:30;43.7;;;29.3;;
36833;SDS011;48003;52.084;5.224;2023-04-09T00:08:43;42.1;;;29.0;;
36833;SDS011;48003;52.084;5.224;2023-04-09T00:10:19;42.7;;;29.1;;
36833;SDS011;48003;52.084;5.224;2023-04-09T00:11:56;43.7;;;29.4;;
36833;SDS011;48003;52.084;5.224;2023-04-09T00:15:10;43.9;;;28.4;;
36833;SDS011;48003;52.084;5.224;2023-04-09T00:16:46;42.8;;;29.0;;
36833;SDS011;48003;52.084;5.224;2023-04-09T00:18:23;44.0;;;29.2;;
36833;SDS011;48003;52.084;5.224;2023-04-09T00:21:36;42.5;;;29.0;;
36833;SDS011;48003;52.084;5.224;2023-04-09T00:24:48;43.0;;;28.1;;
36833;SDS011;48003;52.084;5.224;2023-04-09T00:29:38;44.1;;;28.9;;
36833;SDS011;48003;52.084;5.224;2023-04-09T00:31:15;42.4;;;28.6;;
36833;SDS011;48003;52.084;5.224;2023-04-09T00:32:51;41.0;;;27.9;;
36833;SDS011;48003;52.084;5.224;2023-04-09T00:36:03;42.4;;;28.8;;
36833;SDS011;48003;52.084;5.224;2023-04-09T00:37:40;41.6;;;28.2;;
36833;SDS011;48003;52.084;5.224;2023-04-09T00:39:17;43.4;;;28.4;;
36833;SDS011;48003;52.084;5.224;2023-04-09T00:42:30;43.0;;;28.7;;
36833;SDS011;48003;52.084;5.224;2023-04-09T00:44:07;40.21;;;27.7;;
36833;SDS011;48003;52.084;5.224;2023-04-09T00:45:43;40.9;;;27.7;;
36833;SDS011;48003;52.084;5.224;2023-04-09T00:47:20;42.5;;;28.6;;
36833;SDS011;48003;52.084;5.224;2023-04-09T00:50:33;44.9;;;29.0;;
36833;SDS011;48003;52.084;5.224;2023-04-09T00:52:10;44.6;;;28.3;;
36833;SDS011;48003;52.084;5.224;2023-04-09T00:53:47;41.7;;;28.1;;
36833;SDS011;48003;52.084;5.224;2023-04-09T00:57:00;42.7;;;28.3;;
36833;SDS011;48003;52.084;5.224;2023-04-09T00:58:36;41.4;;;27.4;;
36833;SDS011;48003;52.084;5.224;2023-04-09T01:00:13;43.9;;;28.5;;
36833;SDS011;48003;52.084;5.224;2023-04-09T01:03:26;41.9;;;28.1;;
36833;SDS011;48003;52.084;5.224;2023-04-09T01:05:04;45.1;;;28.9;;
36833;SDS011;48003;52.084;5.224;2023-04-09T01:06:42;43.9;;;28.3;;
36833;SDS011;48003;52.084;5.224;2023-04-09T01:08:28;44.6;;;28.5;;
36833;SDS011;48003;52.084;5.224;2023-04-09T01:12:01;43.2;;;28.0;;
36833;SDS011;48003;52.084;5.224;2023-04-09T01:13:53;42.7;;;28.3;;
36833;SDS011;48003;52.084;5.224;2023-04-09T01:15:39;42.6;;;28.0;;
36833;SDS011;48003;52.084;5.224;2023-04-09T01:17:28;42.4;;;28.9;;
36833;SDS011;48003;52.084;5.224;2023-04-09T01:19:15;42.7;;;28.4;;
36833;SDS011;48003;52.084;5.224;2023-04-09T01:21:08;44.6;;;28.4;;
36833;SDS011;48003;52.084;5.224;2023-04-09T01:24:41;45.2;;;29.9;;
36833;SDS011;48003;52.084;5.224;2023-04-09T01:26:37;42.0;;;27.7;;
36833;SDS011;48003;52.084;5.224;2023-04-09T01:28:31;45.7;;;28.9;;
36833;SDS011;48003;52.084;5.224;2023-04-09T01:30:09;42.9;;;28.5;;
36833;SDS011;48003;52.084;5.224;2023-04-09T01:33:31;42.7;;;29.0;;
36833;SDS011;48003;52.084;5.224;2023-04-09T01:36:47;46.7;;;30.3;;
36833;SDS011;48003;52.084;5.224;2023-04-09T01:38:30;46.0;;;29.8;;
36833;SDS011;48003;52.084;5.224;2023-04-09T01:40:09;47.8;;;30.5;;
36833;SDS011;48003;52.084;5.224;2023-04-09T01:41:46;42.5;;;28.3;;
36833;SDS011;48003;52.084;5.224;2023-04-09T01:45:03;42.9;;;28.9;;
36833;SDS011;48003;52.084;5.224;2023-04-09T01:46:42;44.0;;;29.2;;
36833;SDS011;48003;52.084;5.224;2023-04-09T01:48:20;43.5;;;27.9;;
36833;SDS011;48003;52.084;5.224;2023-04-09T01:51:34;48.1;;;30.4;;
36833;SDS011;48003;52.084;5.224;2023-04-09T01:53:11;46.5;;;29.8;;
36833;SDS011;48003;52.084;5.224;2023-04-09T01:54:48;45.4;;;29.3;;
36833;SDS011;48003;52.084;5.224;2023-04-09T01:56:24;47.0;;;30.0;;
36833;SDS011;48003;52.084;5.224;2023-04-09T01:59:38;44.4;;;28.9;;
36833;SDS011;48003;52.084;5.224;2023-04-09T02:01:15;46.7;;;29.5;;
36833;SDS011;48003;52.084;5.224;2023-04-09T02:03:00;47.1;;;30.1;;
36833;SDS011;48003;52.084;5.224;2023-04-09T02:04:45;45.1;;;29.4;;
36833;SDS011;48003;52.084;5.224;2023-04-09T02:08:10;43.2;;;28.6;;
36833;SDS011;48003;52.084;5.224;2023-04-09T02:09:52;44.0;;;28.1;;
36833;SDS011;48003;52.084;5.224;2023-04-09T02:11:30;42.8;;;27.9;;
36833;SDS011;48003;52.084;5.224;2023-04-09T02:13:10;44.4;;;29.9;;
36833;SDS011;48003;52.084;5.224;2023-04-09T02:16:29;40.1;;;27.6;;
36833;SDS011;48003;52.084;5.224;2023-04-09T02:18:19;38.4;;;26.4;;
36833;SDS011;48003;52.084;5.224;2023-04-09T02:19:56;42.3;;;28.2;;
36833;SDS011;48003;52.084;5.224;2023-04-09T02:21:33;43.3;;;28.6;;
36833;SDS011;48003;52.084;5.224;2023-04-09T02:24:46;40.9;;;27.3;;
36833;SDS011;48003;52.084;5.224;2023-04-09T02:26:23;43.5;;;28.2;;
36833;SDS011;48003;52.084;5.224;2023-04-09T02:28:00;39.9;;;27.8;;
36833;SDS011;48003;52.084;5.224;2023-04-09T02:31:14;42.3;;;28.9;;
36833;SDS011;48003;52.084;5.224;2023-04-09T02:32:51;42.4;;;29.0;;
36833;SDS011;48003;52.084;5.224;2023-04-09T02:34:27;43.4;;;29.8;;
36833;SDS011;48003;52.084;5.224;2023-04-09T02:37:40;43.6;;;28.9;;
36833;SDS011;48003;52.084;5.224;2023-04-09T02:39:17;44.8;;;29.4;;
36833;SDS011;48003;52.084;5.224;2023-04-09T02:40:53;43.3;;;28.8;;
36833;SDS011;48003;52.084;5.224;2023-04-09T02:42:30;40.5;;;28.4;;
36833;SDS011;48003;52.084;5.224;2023-04-09T02:45:42;41.4;;;28.8;;
36833;SDS011;48003;52.084;5.224;2023-04-09T02:47:18;44.0;;;28.2;;
36833;SDS011;48003;52.084;5.224;2023-04-09T02:48:54;44.7;;;29.5;;
36833;SDS011;48003;52.084;5.224;2023-04-09T02:52:08;43.9;;;29.2;;
36833;SDS011;48003;52.084;5.224;2023-04-09T02:53:45;42.7;;;28.8;;
36833;SDS011;48003;52.084;5.224;2023-04-09T02:55:21;40.71;;;28.9;;
36833;SDS011;48003;52.084;5.224;2023-04-09T02:58:34;40.5;;;28.7;;
36833;SDS011;48003;52.084;5.224;2023-04-09T03:00:11;43.7;;;29.1;;
36833;SDS011;48003;52.084;5.224;2023-04-09T03:01:48;44.4;;;29.0;;
36833;SDS011;48003;52.084;5.224;2023-04-09T03:03:24;40.21;;;27.8;;
36833;SDS011;48003;52.084;5.224;2023-04-09T03:06:36;39.0;;;27.7;;
36833;SDS011;48003;52.084;5.224;2023-04-09T03:08:12;40.21;;;27.6;;
36833;SDS011;48003;52.084;5.224;2023-04-09T03:09:48;41.0;;;27.6;;
36833;SDS011;48003;52.084;5.224;2023-04-09T03:13:01;42.4;;;29.0;;
36833;SDS011;48003;52.084;5.224;2023-04-09T03:14:39;40.6;;;27.8;;
36833;SDS011;48003;52.084;5.224;2023-04-09T03:16:15;40.0;;;28.5;;
36833;SDS011;48003;52.084;5.224;2023-04-09T03:19:27;39.5;;;27.9;;
36833;SDS011;48003;52.084;5.224;2023-04-09T03:21:05;43.7;;;29.0;;
36833;SDS011;48003;52.084;5.224;2023-04-09T03:22:42;44.5;;;29.5;;
36833;SDS011;48003;52.084;5.224;2023-04-09T03:24:19;40.71;;;28.6;;
36833;SDS011;48003;52.084;5.224;2023-04-09T03:27:37;44.9;;;29.1;;
36833;SDS011;48003;52.084;5.224;2023-04-09T03:29:13;40.31;;;28.1;;
36833;SDS011;48003;52.084;5.224;2023-04-09T03:30:49;39.9;;;27.3;;
36833;SDS011;48003;52.084;5.224;2023-04-09T03:34:01;42.3;;;29.3;;
36833;SDS011;48003;52.084;5.224;2023-04-09T03:35:37;41.3;;;28.2;;
36833;SDS011;48003;52.084;5.224;2023-04-09T03:37:13;40.0;;;28.5;;
36833;SDS011;48003;52.084;5.224;2023-04-09T03:40:26;42.6;;;28.2;;
36833;SDS011;48003;52.084;5.224;2023-04-09T03:42:02;40.4;;;28.4;;
36833;SDS011;48003;52.084;5.224;2023-04-09T03:43:39;41.2;;;27.8;;
36833;SDS011;48003;52.084;5.224;2023-04-09T03:45:15;44.2;;;28.7;;
36833;SDS011;48003;52.084;5.224;2023-04-09T03:48:27;41.4;;;28.1;;
36833;SDS011;48003;52.084;5.224;2023-04-09T03:50:04;39.1;;;27.6;;
36833;SDS011;48003;52.084;5.224;2023-04-09T03:51:41;39.9;;;27.4;;
36833;SDS011;48003;52.084;5.224;2023-04-09T03:54:53;39.31;;;27.4;;
36833;SDS011;48003;52.084;5.224;2023-04-09T03:56:29;41.9;;;28.8;;
36833;SDS011;48003;52.084;5.224;2023-04-09T03:58:06;38.21;;;27.1;;
36833;SDS011;48003;52.084;5.224;2023-04-09T04:01:19;39.4;;;27.5;;
36833;SDS011;48003;52.084;5.224;2023-04-09T04:02:56;40.6;;;28.3;;
36833;SDS011;48003;52.084;5.224;2023-04-09T04:04:32;42.1;;;28.2;;
36833;SDS011;48003;52.084;5.224;2023-04-09T04:06:08;40.31;;;27.8;;
36833;SDS011;48003;52.084;5.224;2023-04-09T04:09:20;43.5;;;28.4;;
36833;SDS011;48003;52.084;5.224;2023-04-09T04:11:01;39.31;;;27.4;;
36833;SDS011;48003;52.084;5.224;2023-04-09T04:12:38;40.6;;;27.9;;
36833;SDS011;48003;52.084;5.224;2023-04-09T04:15:52;41.4;;;28.1;;
36833;SDS011;48003;52.084;5.224;2023-04-09T04:17:28;40.4;;;28.5;;
36833;SDS011;48003;52.084;5.224;2023-04-09T04:19:05;40.4;;;27.4;;
36833;SDS011;48003;52.084;5.224;2023-04-09T04:20:42;40.4;;;27.6;;
36833;SDS011;48003;52.084;5.224;2023-04-09T04:23:54;44.7;;;28.6;;
36833;SDS011;48003;52.084;5.224;2023-04-09T04:25:30;40.6;;;27.5;;
36833;SDS011;48003;52.084;5.224;2023-04-09T04:27:07;40.71;;;28.1;;
36833;SDS011;48003;52.084;5.224;2023-04-09T04:30:19;39.71;;;27.4;;
36833;SDS011;48003;52.084;5.224;2023-04-09T04:31:56;42.4;;;27.7;;
36833;SDS011;48003;52.084;5.224;2023-04-09T04:33:33;43.1;;;28.4;;
36833;SDS011;48003;52.084;5.224;2023-04-09T04:36:45;40.71;;;26.7;;
36833;SDS011;48003;52.084;5.224;2023-04-09T04:38:21;40.31;;;27.9;;
36833;SDS011;48003;52.084;5.224;2023-04-09T04:39:59;39.5;;;27.4;;
36833;SDS011;48003;52.084;5.224;2023-04-09T04:41:37;41.5;;;27.0;;
36833;SDS011;48003;52.084;5.224;2023-04-09T04:44:49;40.31;;;26.9;;
36833;SDS011;48003;52.084;5.224;2023-04-09T04:46:26;39.21;;;26.6;;
36833;SDS011;48003;52.084;5.224;2023-04-09T04:48:02;36.0;;;24.6;;
36833;SDS011;48003;52.084;5.224;2023-04-09T04:51:15;35.9;;;25.3;;
36833;SDS011;48003;52.084;5.224;2023-04-09T04:52:52;35.0;;;24.9;;
36833;SDS011;48003;52.084;5.224;2023-04-09T04:54:28;36.31;;;24.8;;
36833;SDS011;48003;52.084;5.224;2023-04-09T04:57:40;37.6;;;26.4;;
36833;SDS011;48003;52.084;5.224;2023-04-09T04:59:16;38.9;;;25.9;;
36833;SDS011;48003;52.084;5.224;2023-04-09T05:00:52;40.4;;;27.3;;
36833;SDS011;48003;52.084;5.224;2023-04-09T05:04:05;41.5;;;28.4;;
36833;SDS011;48003;52.084;5.224;2023-04-09T05:05:41;41.3;;;27.5;;
36833;SDS011;48003;52.084;5.224;2023-04-09T05:07:17;40.4;;;27.3;;
36833;SDS011;48003;52.084;5.224;2023-04-09T05:08:53;39.81;;;27.2;;
36833;SDS011;48003;52.084;5.224;2023-04-09T05:12:05;41.5;;;29.0;;
36833;SDS011;48003;52.084;5.224;2023-04-09T05:13:42;39.81;;;27.2;;
36833;SDS011;48003;52.084;5.224;2023-04-09T05:15:18;40.9;;;27.0;;
36833;SDS011;48003;52.084;5.224;2023-04-09T05:18:31;40.31;;;27.5;;
36833;SDS011;48003;52.084;5.224;2023-04-09T05:20:07;38.31;;;27.2;;
36833;SDS011;48003;52.084;5.224;2023-04-09T05:21:45;41.7;;;27.1;;
36833;SDS011;48003;52.084;5.224;2023-04-09T05:24:57;39.21;;;27.5;;
36833;SDS011;48003;52.084;5.224;2023-04-09T05:26:33;40.6;;;27.9;;
36833;SDS011;48003;52.084;5.224;2023-04-09T05:28:10;42.4;;;27.3;;
36833;SDS011;48003;52.084;5.224;2023-04-09T05:29:47;42.4;;;27.3;;
36833;SDS011;48003;52.084;5.224;2023-04-09T05:32:59;42.6;;;29.1;;
36833;SDS011;48003;52.084;5.224;2023-04-09T05:34:35;42.0;;;28.7;;
36833;SDS011;48003;52.084;5.224;2023-04-09T05:36:13;39.21;;;27.4;;
36833;SDS011;48003;52.084;5.224;2023-04-09T05:39:27;41.4;;;28.6;;
36833;SDS011;48003;52.084;5.224;2023-04-09T05:41:04;43.6;;;29.4;;
36833;SDS011;48003;52.084;5.224;2023-04-09T05:42:40;40.71;;;27.7;;
36833;SDS011;48003;52.084;5.224;2023-04-09T05:45:52;40.71;;;27.7;;
36833;SDS011;48003;52.084;5.224;2023-04-09T05:47:29;44.7;;;31.3;;
36833;SDS011;48003;52.084;5.224;2023-04-09T05:49:05;48.0;;;32.1;;
36833;SDS011;48003;52.084;5.224;2023-04-09T05:50:41;47.2;;;31.8;;
36833;SDS011;48003;52.084;5.224;2023-04-09T05:54:01;47.3;;;30.9;;
36833;SDS011;48003;52.084;5.224;2023-04-09T05:55:38;49.9;;;33.21;;
36833;SDS011;48003;52.084;5.224;2023-04-09T05:57:14;53.8;;;35.31;;
36833;SDS011;48003;52.084;5.224;2023-04-09T06:00:26;54.5;;;35.4;;
36833;SDS011;48003;52.084;5.224;2023-04-09T06:02:03;53.7;;;35.31;;
36833;SDS011;48003;52.084;5.224;2023-04-09T06:03:40;53.3;;;34.9;;
36833;SDS011;48003;52.084;5.224;2023-04-09T06:05:18;53.9;;;36.4;;
36833;SDS011;48003;52.084;5.224;2023-04-09T06:08:30;53.9;;;36.81;;
36833;SDS011;48003;52.084;5.224;2023-04-09T06:10:06;57.5;;;37.0;;
36833;SDS011;48003;52.084;5.224;2023-04-09T06:11:44;58.6;;;40.1;;
36833;SDS011;48003;52.084;5.224;2023-04-09T06:14:56;60.0;;;40.0;;
36833;SDS011;48003;52.084;5.224;2023-04-09T06:16:33;57.8;;;38.0;;
36833;SDS011;48003;52.084;5.224;2023-04-09T06:18:10;60.4;;;38.81;;
36833;SDS011;48003;52.084;5.224;2023-04-09T06:21:22;56.5;;;37.9;;
36833;SDS011;48003;52.084;5.224;2023-04-09T06:22:59;54.4;;;37.4;;
36833;SDS011;48003;52.084;5.224;2023-04-09T06:24:35;62.0;;;40.31;;
36833;SDS011;48003;52.084;5.224;2023-04-09T06:26:12;56.4;;;38.81;;
36833;SDS011;48003;52.084;5.224;2023-04-09T06:29:25;56.4;;;38.81;;
36833;SDS011;48003;52.084;5.224;2023-04-09T06:31:01;60.0;;;38.6;;
36833;SDS011;48003;52.084;5.224;2023-04-09T06:32:37;56.3;;;38.81;;
36833;SDS011;48003;52.084;5.224;2023-04-09T06:35:49;57.2;;;38.21;;
36833;SDS011;48003;52.084;5.224;2023-04-09T06:37:26;56.5;;;38.31;;
36833;SDS011;48003;52.084;5.224;2023-04-09T06:39:02;59.1;;;40.31;;
36833;SDS011;48003;52.084;5.224;2023-04-09T06:42:14;61.8;;;40.4;;
36833;SDS011;48003;52.084;5.224;2023-04-09T06:43:51;59.0;;;40.0;;
36833;SDS011;48003;52.084;5.224;2023-04-09T06:45:27;59.1;;;39.81;;
36833;SDS011;48003;52.084;5.224;2023-04-09T06:48:40;60.0;;;39.21;;
36833;SDS011;48003;52.084;5.224;2023-04-09T06:50:17;57.9;;;38.9;;
36833;SDS011;48003;52.084;5.224;2023-04-09T06:51:54;57.8;;;39.4;;
36833;SDS011;48003;52.084;5.224;2023-04-09T06:53:30;54.1;;;36.9;;
36833;SDS011;48003;52.084;5.224;2023-04-09T06:56:43;51.3;;;35.71;;
36833;SDS011;48003;52.084;5.224;2023-04-09T06:58:19;51.4;;;35.0;;
36833;SDS011;48003;52.084;5.224;2023-04-09T06:59:55;53.0;;;35.71;;
36833;SDS011;48003;52.084;5.224;2023-04-09T07:03:09;51.2;;;35.4;;
36833;SDS011;48003;52.084;5.224;2023-04-09T07:04:45;49.3;;;33.6;;
36833;SDS011;48003;52.084;5.224;2023-04-09T07:06:21;48.6;;;33.0;;
36833;SDS011;48003;52.084;5.224;2023-04-09T07:09:33;50.5;;;33.9;;
36833;SDS011;48003;52.084;5.224;2023-04-09T07:11:09;51.7;;;35.31;;
36833;SDS011;48003;52.084;5.224;2023-04-09T07:12:45;50.0;;;34.81;;
36833;SDS011;48003;52.084;5.224;2023-04-09T07:14:21;50.4;;;35.21;;
36833;SDS011;48003;52.084;5.224;2023-04-09T07:17:34;52.2;;;35.31;;
36833;SDS011;48003;52.084;5.224;2023-04-09T07:19:11;53.1;;;35.31;;
36833;SDS011;48003;52.084;5.224;2023-04-09T07:20:47;53.4;;;36.6;;
36833;SDS011;48003;52.084;5.224;2023-04-09T07:24:02;52.9;;;35.5;;
36833;SDS011;48003;52.084;5.224;2023-04-09T07:25:39;51.2;;;35.0;;
36833;SDS011;48003;52.084;5.224;2023-04-09T07:27:15;47.3;;;33.3;;
36833;SDS011;48003;52.084;5.224;2023-04-09T07:30:28;51.0;;;35.0;;
36833;SDS011;48003;52.084;5.224;2023-04-09T07:32:04;49.6;;;33.4;;
36833;SDS011;48003;52.084;5.224;2023-04-09T07:33:41;50.7;;;34.1;;
36833;SDS011;48003;52.084;5.224;2023-04-09T07:35:18;45.3;;;32.0;;
36833;SDS011;48003;52.084;5.224;2023-04-09T07:38:30;44.5;;;31.6;;
36833;SDS011;48003;52.084;5.224;2023-04-09T07:40:07;45.5;;;31.6;;
36833;SDS011;48003;52.084;5.224;2023-04-09T07:41:43;45.0;;;32.5;;
36833;SDS011;48003;52.084;5.224;2023-04-09T07:44:56;45.6;;;32.8;;
36833;SDS011;48003;52.084;5.224;2023-04-09T07:46:32;49.0;;;33.6;;
36833;SDS011;48003;52.084;5.224;2023-04-09T07:48:08;46.3;;;32.6;;
36833;SDS011;48003;52.084;5.224;2023-04-09T07:51:20;46.2;;;31.9;;
36833;SDS011;48003;52.084;5.224;2023-04-09T07:52:57;45.4;;;30.0;;
36833;SDS011;48003;52.084;5.224;2023-04-09T07:54:33;42.0;;;29.9;;
36833;SDS011;48003;52.084;5.224;2023-04-09T07:56:10;40.5;;;28.0;;
36833;SDS011;48003;52.084;5.224;2023-04-09T07:59:22;35.21;;;25.4;;
36833;SDS011;48003;52.084;5.224;2023-04-09T08:00:58;35.21;;;25.1;;
36833;SDS011;48003;52.084;5.224;2023-04-09T08:02:34;35.0;;;24.5;;
36833;SDS011;48003;52.084;5.224;2023-04-09T08:05:47;36.0;;;24.9;;
36833;SDS011;48003;52.084;5.224;2023-04-09T08:07:23;34.6;;;25.2;;
36833;SDS011;48003;52.084;5.224;2023-04-09T08:09:00;33.4;;;24.2;;
36833;SDS011;48003;52.084;5.224;2023-04-09T08:12:14;36.9;;;27.0;;
36833;SDS011;48003;52.084;5.224;2023-04-09T08:13:50;38.6;;;27.4;;
36833;SDS011;48003;52.084;5.224;2023-04-09T08:15:26;38.81;;;26.7;;
36833;SDS011;48003;52.084;5.224;2023-04-09T08:18:39;38.0;;;26.3;;
36833;SDS011;48003;52.084;5.224;2023-04-09T08:20:15;34.0;;;25.3;;
36833;SDS011;48003;52.084;5.224;2023-04-09T08:21:51;37.81;;;27.2;;
36833;SDS011;48003;52.084;5.224;2023-04-09T08:23:27;36.1;;;25.3;;
36833;SDS011;48003;52.084;5.224;2023-04-09T08:28:18;36.6;;;26.2;;
36833;SDS011;48003;52.084;5.224;2023-04-09T08:29:54;38.81;;;26.2;;
36833;SDS011;48003;52.084;5.224;2023-04-09T08:33:07;35.31;;;24.7;;
36833;SDS011;48003;52.084;5.224;2023-04-09T08:34:44;33.4;;;24.5;;
36833;SDS011;48003;52.084;5.224;2023-04-09T08:36:20;33.8;;;25.7;;
36833;SDS011;48003;52.084;5.224;2023-04-09T08:39:34;36.1;;;26.0;;
36833;SDS011;48003;52.084;5.224;2023-04-09T08:41:15;33.21;;;24.3;;
36833;SDS011;48003;52.084;5.224;2023-04-09T08:42:54;32.1;;;23.7;;
36833;SDS011;48003;52.084;5.224;2023-04-09T08:44:31;35.1;;;24.7;;
36833;SDS011;48003;52.084;5.224;2023-04-09T08:47:45;32.71;;;24.0;;
36833;SDS011;48003;52.084;5.224;2023-04-09T08:49:24;35.71;;;25.0;;
36833;SDS011;48003;52.084;5.224;2023-04-09T08:51:00;34.71;;;25.8;;
36833;SDS011;48003;52.084;5.224;2023-04-09T08:52:37;32.6;;;25.0;;
36833;SDS011;48003;52.084;5.224;2023-04-09T08:55:51;33.5;;;24.7;;
36833;SDS011;48003;52.084;5.224;2023-04-09T08:57:28;33.5;;;24.3;;
36833;SDS011;48003;52.084;5.224;2023-04-09T08:59:04;33.4;;;24.4;;
36833;SDS011;48003;52.084;5.224;2023-04-09T09:02:16;36.5;;;25.3;;
36833;SDS011;48003;52.084;5.224;2023-04-09T09:03:54;33.21;;;24.9;;
36833;SDS011;48003;52.084;5.224;2023-04-09T09:05:36;31.3;;;24.2;;
36833;SDS011;48003;52.084;5.224;2023-04-09T09:09:02;34.5;;;24.8;;
36833;SDS011;48003;52.084;5.224;2023-04-09T09:10:41;32.8;;;25.4;;
36833;SDS011;48003;52.084;5.224;2023-04-09T09:12:36;33.6;;;24.4;;
36833;SDS011;48003;52.084;5.224;2023-04-09T09:14:14;32.9;;;24.7;;
36833;SDS011;48003;52.084;5.224;2023-04-09T09:15:53;32.0;;;23.7;;
36833;SDS011;48003;52.084;5.224;2023-04-09T09:17:51;31.4;;;23.8;;
36833;SDS011;48003;52.084;5.224;2023-04-09T09:21:08;32.0;;;24.6;;
36833;SDS011;48003;52.084;5.224;2023-04-09T09:22:47;34.9;;;25.2;;
36833;SDS011;48003;52.084;5.224;2023-04-09T09:24:25;31.1;;;23.8;;
36833;SDS011;48003;52.084;5.224;2023-04-09T09:27:47;33.71;;;24.4;;
36833;SDS011;48003;52.084;5.224;2023-04-09T09:29:24;30.5;;;22.9;;
36833;SDS011;48003;52.084;5.224;2023-04-09T09:31:06;34.4;;;23.2;;
36833;SDS011;48003;52.084;5.224;2023-04-09T09:32:44;32.6;;;23.8;;
36833;SDS011;48003;52.084;5.224;2023-04-09T09:35:59;36.81;;;24.0;;
36833;SDS011;48003;52.084;5.224;2023-04-09T09:37:36;32.0;;;23.8;;
36833;SDS011;48003;52.084;5.224;2023-04-09T09:39:14;34.5;;;24.3;;
36833;SDS011;48003;52.084;5.224;2023-04-09T09:40:52;32.4;;;24.4;;
36833;SDS011;48003;52.084;5.224;2023-04-09T09:44:04;33.0;;;24.4;;
36833;SDS011;48003;52.084;5.224;2023-04-09T09:45:42;33.21;;;24.9;;
36833;SDS011;48003;52.084;5.224;2023-04-09T09:47:21;34.5;;;25.1;;
36833;SDS011;48003;52.084;5.224;2023-04-09T09:50:35;41.9;;;30.8;;
36833;SDS011;48003;52.084;5.224;2023-04-09T09:52:13;36.5;;;26.6;;
36833;SDS011;48003;52.084;5.224;2023-04-09T09:53:50;33.9;;;25.4;;
36833;SDS011;48003;52.084;5.224;2023-04-09T09:55:30;34.1;;;25.9;;
36833;SDS011;48003;52.084;5.224;2023-04-09T09:58:48;35.9;;;26.4;;
36833;SDS011;48003;52.084;5.224;2023-04-09T10:00:30;34.6;;;25.7;;
36833;SDS011;48003;52.084;5.224;2023-04-09T10:02:11;35.6;;;26.8;;
36833;SDS011;48003;52.084;5.224;2023-04-09T10:03:54;34.4;;;27.3;;
36833;SDS011;48003;52.084;5.224;2023-04-09T10:07:10;38.1;;;27.8;;
36833;SDS011;48003;52.084;5.224;2023-04-09T10:08:48;35.6;;;27.0;;
36833;SDS011;48003;52.084;5.224;2023-04-09T10:10:25;34.5;;;26.6;;
36833;SDS011;48003;52.084;5.224;2023-04-09T10:13:42;37.1;;;26.6;;
36833;SDS011;48003;52.084;5.224;2023-04-09T10:15:25;35.81;;;26.2;;
36833;SDS011;48003;52.084;5.224;2023-04-09T10:17:04;34.6;;;26.9;;
36833;SDS011;48003;52.084;5.224;2023-04-09T10:18:41;36.0;;;26.8;;
36833;SDS011;48003;52.084;5.224;2023-04-09T10:22:01;35.6;;;26.2;;
36833;SDS011;48003;52.084;5.224;2023-04-09T10:23:43;34.4;;;26.6;;
36833;SDS011;48003;52.084;5.224;2023-04-09T10:25:23;35.1;;;27.4;;
36833;SDS011;48003;52.084;5.224;2023-04-09T10:27:08;35.21;;;27.5;;
36833;SDS011;48003;52.084;5.224;2023-04-09T10:30:29;34.81;;;26.5;;
36833;SDS011;48003;52.084;5.224;2023-04-09T10:32:07;36.1;;;27.2;;
36833;SDS011;48003;52.084;5.224;2023-04-09T10:35:23;36.9;;;27.2;;
36833;SDS011;48003;52.084;5.224;2023-04-09T10:38:38;37.5;;;27.2;;
36833;SDS011;48003;52.084;5.224;2023-04-09T10:40:17;34.71;;;26.5;;
36833;SDS011;48003;52.084;5.224;2023-04-09T10:41:55;34.71;;;26.5;;
36833;SDS011;48003;52.084;5.224;2023-04-09T10:43:33;35.9;;;27.7;;
36833;SDS011;48003;52.084;5.224;2023-04-09T10:46:51;36.31;;;27.9;;
36833;SDS011;48003;52.084;5.224;2023-04-09T10:48:31;36.9;;;28.9;;
36833;SDS011;48003;52.084;5.224;2023-04-09T10:50:13;37.1;;;28.8;;
36833;SDS011;48003;52.084;5.224;2023-04-09T10:52:00;34.21;;;25.9;;
36833;SDS011;48003;52.084;5.224;2023-04-09T10:55:32;33.0;;;25.8;;
36833;SDS011;48003;52.084;5.224;2023-04-09T10:57:12;32.8;;;26.5;;
36833;SDS011;48003;52.084;5.224;2023-04-09T10:58:53;34.4;;;25.7;;
36833;SDS011;48003;52.084;5.224;2023-04-09T11:00:29;31.9;;;25.8;;
36833;SDS011;48003;52.084;5.224;2023-04-09T11:03:45;36.81;;;27.8;;
36833;SDS011;48003;52.084;5.224;2023-04-09T11:05:43;35.81;;;27.8;;
36833;SDS011;48003;52.084;5.224;2023-04-09T11:07:23;38.0;;;29.6;;
36833;SDS011;48003;52.084;5.224;2023-04-09T11:09:01;34.4;;;28.5;;
36833;SDS011;48003;52.084;5.224;2023-04-09T11:12:16;33.21;;;26.3;;
36833;SDS011;48003;52.084;5.224;2023-04-09T11:13:56;30.8;;;25.0;;
36833;SDS011;48003;52.084;5.224;2023-04-09T11:15:34;32.3;;;25.2;;
36833;SDS011;48003;52.084;5.224;2023-04-09T11:17:11;29.7;;;23.7;;
36833;SDS011;48003;52.084;5.224;2023-04-09T11:20:25;33.0;;;24.9;;
36833;SDS011;48003;52.084;5.224;2023-04-09T11:22:02;34.21;;;24.7;;
36833;SDS011;48003;52.084;5.224;2023-04-09T11:23:39;30.0;;;24.6;;
36833;SDS011;48003;52.084;5.224;2023-04-09T11:26:55;30.1;;;23.3;;
36833;SDS011;48003;52.084;5.224;2023-04-09T11:28:33;29.1;;;23.1;;
36833;SDS011;48003;52.084;5.224;2023-04-09T11:30:10;31.4;;;24.8;;
36833;SDS011;48003;52.084;5.224;2023-04-09T11:31:47;30.8;;;24.1;;
36833;SDS011;48003;52.084;5.224;2023-04-09T11:35:09;29.8;;;23.5;;
36833;SDS011;48003;52.084;5.224;2023-04-09T11:36:47;30.4;;;23.0;;
36833;SDS011;48003;52.084;5.224;2023-04-09T11:38:23;27.8;;;22.6;;
36833;SDS011;48003;52.084;5.224;2023-04-09T11:40:00;29.6;;;24.1;;
36833;SDS011;48003;52.084;5.224;2023-04-09T11:43:13;32.0;;;24.1;;
36833;SDS011;48003;52.084;5.224;2023-04-09T11:44:51;28.4;;;22.3;;
36833;SDS011;48003;52.084;5.224;2023-04-09T11:46:28;24.1;;;20.41;;
36833;SDS011;48003;52.084;5.224;2023-04-09T11:49:42;24.7;;;20.3;;
36833;SDS011;48003;52.084;5.224;2023-04-09T11:51:20;24.6;;;19.8;;
36833;SDS011;48003;52.084;5.224;2023-04-09T11:52:58;29.9;;;22.9;;
36833;SDS011;48003;52.084;5.224;2023-04-09T11:56:11;26.7;;;21.9;;
36833;SDS011;48003;52.084;5.224;2023-04-09T11:57:47;26.5;;;21.4;;
36833;SDS011;48003;52.084;5.224;2023-04-09T11:59:26;23.4;;;19.8;;
36833;SDS011;48003;52.084;5.224;2023-04-09T12:01:02;21.6;;;17.5;;
36833;SDS011;48003;52.084;5.224;2023-04-09T12:04:18;24.4;;;18.0;;
36833;SDS011;48003;52.084;5.224;2023-04-09T12:05:58;24.0;;;19.0;;
36833;SDS011;48003;52.084;5.224;2023-04-09T12:07:36;20.7;;;16.61;;
36833;SDS011;48003;52.084;5.224;2023-04-09T12:10:51;21.2;;;17.8;;
36833;SDS011;48003;52.084;5.224;2023-04-09T12:12:27;21.4;;;18.2;;
36833;SDS011;48003;52.084;5.224;2023-04-09T12:14:03;21.9;;;17.61;;
36833;SDS011;48003;52.084;5.224;2023-04-09T12:15:40;22.6;;;18.0;;
36833;SDS011;48003;52.084;5.224;2023-04-09T12:18:56;21.7;;;17.11;;
36833;SDS011;48003;52.084;5.224;2023-04-09T12:20:36;19.5;;;16.4;;
36833;SDS011;48003;52.084;5.224;2023-04-09T12:22:14;19.0;;;15.7;;
36833;SDS011;48003;52.084;5.224;2023-04-09T12:25:26;18.5;;;15.7;;
36833;SDS011;48003;52.084;5.224;2023-04-09T12:27:04;20.41;;;17.41;;
36833;SDS011;48003;52.084;5.224;2023-04-09T12:28:42;21.1;;;17.41;;
36833;SDS011;48003;52.084;5.224;2023-04-09T12:30:19;23.9;;;18.11;;
36833;SDS011;48003;52.084;5.224;2023-04-09T12:33:31;19.7;;;16.0;;
36833;SDS011;48003;52.084;5.224;2023-04-09T12:35:07;19.2;;;15.9;;
36833;SDS011;48003;52.084;5.224;2023-04-09T12:36:44;17.2;;;15.0;;
36833;SDS011;48003;52.084;5.224;2023-04-09T12:39:57;18.41;;;15.5;;
36833;SDS011;48003;52.084;5.224;2023-04-09T12:41:33;19.61;;;16.61;;
36833;SDS011;48003;52.084;5.224;2023-04-09T12:43:09;20.0;;;16.61;;